Time;durP1;ratioP1;P1;durP2;ratioP2;P2;SDS_P1;SDS_P2;PMS_P1;PMS_P2;Temp;Humidity;BMP_temperature;BMP_pressure;BME280_temperature;BME280_humidity;BME280_pressure;Samples;Min_cycle;Max_cycle;Signal;HPM_P1;HPM_P2
2023/01/30 00:00:59;;;;;;;4.88;2.58;;;;;;;0.82;93.25;100477.16;6348074;28;20503;-72
2023/01/30 00:04:00;;;;;;;6.32;3.53;;;;;;;0.84;93.50;100472.00;6312561;28;20037;-73
2023/01/30 00:07:01;;;;;;;15.48;2.85;;;;;;;0.90;92.83;100471.91;6322774;28;20043;-78
2023/01/30 00:10:02;;;;;;;9.93;3.35;;;;;;;0.92;91.40;100467.59;6304681;28;20048;-77
2023/01/30 00:13:03;;;;;;;6.10;2.67;;;;;;;0.90;92.23;100457.34;6322703;28;20051;-78
2023/01/30 00:16:04;;;;;;;7.68;3.83;;;;;;;0.85;92.86;100453.16;6337856;28;20043;-72
2023/01/30 00:19:05;;;;;;;5.30;3.00;;;;;;;0.77;92.84;100437.88;6347555;28;20059;-73
2023/01/30 00:22:06;;;;;;;5.25;3.00;;;;;;;0.78;91.78;100442.09;6329129;28;20046;-78
2023/01/30 00:25:11;;;;;;;11.52;3.45;;;;;;;0.68;91.30;100440.53;6329561;28;20074;-78
2023/01/30 00:28:12;;;;;;;4.35;2.72;;;;;;;0.67;90.66;100442.28;6328608;28;20039;-72
2023/01/30 00:31:13;;;;;;;4.22;2.65;;;;;;;0.70;89.99;100433.66;6347359;28;20402;-78
2023/01/30 00:34:14;;;;;;;6.85;4.40;;;;;;;0.67;89.81;100428.59;6347419;28;20548;-73
2023/01/30 00:37:14;;;;;;;4.13;2.08;;;;;;;0.69;89.51;100429.41;6347578;28;20060;-78
2023/01/30 00:40:16;;;;;;;6.95;2.58;;;;;;;0.73;89.97;100436.22;6329575;28;20396;-73
2023/01/30 00:49:56;;;;;;;2.42;1.85;;;;;;;0.74;90.35;100431.06;6347424;28;20046;-78
2023/01/30 00:52:57;;;;;;;4.00;2.28;;;;;;;0.76;90.45;100438.72;6328970;28;20047;-72
2023/01/30 00:55:58;;;;;;;4.43;1.92;;;;;;;0.69;90.02;100427.69;6328856;28;20047;-78
2023/01/30 00:58:59;;;;;;;5.97;2.75;;;;;;;0.63;89.26;100432.06;6346711;28;20638;-72
2023/01/30 01:02:00;;;;;;;3.03;2.15;;;;;;;0.67;89.25;100429.44;6346826;28;20051;-72
2023/01/30 01:05:01;;;;;;;5.47;3.78;;;;;;;0.60;89.73;100415.84;6330214;28;20048;-78
2023/01/30 01:08:02;;;;;;;5.60;3.30;;;;;;;0.69;89.96;100419.97;6333872;28;20114;-70
2023/01/30 01:11:03;;;;;;;3.47;2.05;;;;;;;0.65;90.42;100414.91;6352260;28;20403;-78
2023/01/30 01:14:04;;;;;;;3.78;1.92;;;;;;;0.64;89.65;100397.81;6352194;28;20051;-78
2023/01/30 01:17:05;;;;;;;3.90;2.35;;;;;;;0.69;88.40;100399.44;6333628;28;20414;-78
2023/01/30 01:20:08;;;;;;;6.90;2.80;;;;;;;0.68;88.89;100394.31;6351546;28;20044;-73
2023/01/30 01:23:10;;;;;;;3.80;2.60;;;;;;;0.68;88.92;100396.88;6331327;28;20475;-78
2023/01/30 01:26:11;;;;;;;2.63;1.65;;;;;;;0.69;88.13;100384.03;6326652;28;20551;-78
2023/01/30 01:29:13;;;;;;;3.88;2.40;;;;;;;0.74;88.15;100386.50;6308569;28;20075;-73
2023/01/30 01:32:14;;;;;;;10.05;3.08;;;;;;;0.72;88.58;100388.25;6326121;28;20040;-73
2023/01/30 01:35:14;;;;;;;11.93;4.82;;;;;;;0.64;90.22;100382.38;6326017;28;20051;-73
2023/01/30 01:38:15;;;;;;;15.93;6.75;;;;;;;0.64;90.30;100370.41;6308044;28;20546;-73
2023/01/30 01:41:17;;;;;;;10.25;3.95;;;;;;;0.53;91.50;100370.56;6326342;28;20040;-78
2023/01/30 01:44:20;;;;;;;7.38;3.53;;;;;;;0.40;91.59;100358.78;6307783;28;20070;-72
2023/01/30 01:47:21;;;;;;;1.63;1.52;;;;;;;0.40;91.04;100358.78;6326676;28;20048;-78
2023/01/30 01:50:27;;;;;;;4.32;2.72;;;;;;;0.46;90.95;100357.84;6308160;28;20097;-78
2023/01/30 01:53:35;;;;;;;4.38;2.70;;;;;;;0.51;91.22;100354.31;6311024;28;20120;-78
2023/01/30 01:56:40;;;;;;;3.13;1.95;;;;;;;0.57;90.93;100350.81;6325063;28;20044;-78
2023/01/30 01:59:57;;;;;;;3.35;2.50;;;;;;;0.53;90.98;100356.88;6308107;28;20050;-72
2023/01/30 02:03:01;;;;;;;1.67;1.40;;;;;;;0.42;90.94;100353.63;6307752;28;20048;-73
2023/01/30 02:06:03;;;;;;;7.15;3.03;;;;;;;0.24;91.70;100347.88;6325234;28;20036;-72
2023/01/30 02:09:09;;;;;;;4.20;2.50;;;;;;;0.29;92.35;100348.69;6324670;28;20101;-72
2023/01/30 02:12:13;;;;;;;5.32;2.28;;;;;;;0.38;92.13;100351.09;6306992;28;20102;-73
2023/01/30 02:15:14;;;;;;;8.27;2.17;;;;;;;0.36;92.43;100354.56;6315324;28;20040;-72
2023/01/30 02:18:15;;;;;;;2.95;2.42;;;;;;;0.28;92.51;100341.00;6324529;28;20090;-78
2023/01/30 02:21:38;;;;;;;3.60;2.00;;;;;;;0.10;94.35;100335.22;6325193;28;20040;-72
2023/01/30 02:24:39;;;;;;;13.45;3.97;;;;;;;0.20;94.59;100330.81;6326486;28;20039;-78
2023/01/30 02:27:43;;;;;;;4.00;2.30;;;;;;;0.17;94.88;100331.72;6306757;28;20588;-73
2023/01/30 02:31:05;;;;;;;3.33;2.45;;;;;;;0.30;94.42;100334.13;6324733;28;20123;-76
2023/01/30 02:34:21;;;;;;;3.47;2.30;;;;;;;0.36;93.67;100329.72;6307414;28;20077;-78
2023/01/30 02:37:40;;;;;;;3.72;2.33;;;;;;;0.25;93.81;100329.06;6350001;28;20063;-73
2023/01/30 02:41:07;;;;;;;2.63;2.20;;;;;;;0.35;93.41;100330.63;6349703;28;20476;-73
2023/01/30 02:44:23;;;;;;;3.63;2.10;;;;;;;0.38;92.29;100329.72;6349785;28;20504;-73
2023/01/30 02:47:39;;;;;;;5.55;2.33;;;;;;;0.35;91.84;100333.19;6331347;28;20047;-72
2023/01/30 02:50:46;;;;;;;5.45;2.67;;;;;;;0.39;91.12;100328.84;6330489;28;20037;-72
2023/01/30 02:53:49;;;;;;;6.40;2.55;;;;;;;0.19;91.38;100314.59;6323158;28;20077;-78
2023/01/30 02:56:55;;;;;;;4.72;2.40;;;;;;;0.13;91.19;100311.25;6331504;28;20123;-78
2023/01/30 03:00:02;;;;;;;8.20;2.38;;;;;;;0.23;91.51;100317.97;6331524;28;20046;-78
2023/01/30 03:03:38;;;;;;;5.25;3.08;;;;;;;0.32;90.61;100311.84;6331707;28;20479;-72
2023/01/30 03:06:58;;;;;;;3.88;2.60;;;;;;;0.27;90.28;100319.63;6349426;28;20051;-72
2023/01/30 03:10:20;;;;;;;3.30;1.75;;;;;;;0.20;90.08;100308.56;6331198;28;20074;-72
2023/01/30 03:13:35;;;;;;;7.50;1.90;;;;;;;0.07;90.84;100291.66;6349274;28;20048;-78
2023/01/30 03:16:40;;;;;;;3.17;2.65;;;;;;;0.18;90.59;100291.50;6331052;28;20039;-78
2023/01/30 03:19:41;;;;;;;2.88;2.15;;;;;;;0.11;91.35;100285.63;6323600;28;20038;-78
2023/01/30 03:22:44;;;;;;;4.45;1.73;;;;;;;-0.05;92.88;100273.88;6321178;28;20043;-78
2023/01/30 03:25:47;;;;;;;5.82;2.63;;;;;;;0.09;92.73;100271.13;6348920;28;20043;-78
2023/01/30 03:28:50;;;;;;;5.25;3.13;;;;;;;0.15;93.18;100258.19;6348035;28;20480;-78
2023/01/30 03:31:51;;;;;;;3.28;1.60;;;;;;;0.18;93.63;100258.97;6348778;28;20039;-78
2023/01/30 03:34:51;;;;;;;2.20;1.63;;;;;;;0.02;98.24;100246.41;6361528;27;20483;-78
2023/01/30 03:37:53;;;;;;;4.43;2.45;;;;;;;-0.05;99.71;100235.41;6355697;27;20046;-72
2023/01/30 03:40:54;;;;;;;5.70;2.67;;;;;;;0.06;100.00;100242.94;6356026;27;20505;-78
2023/01/30 03:43:55;;;;;;;3.15;2.60;;;;;;;-0.12;100.00;100247.47;6355981;27;20035;-78
2023/01/30 03:46:58;;;;;;;4.43;3.13;;;;;;;-0.13;100.00;100243.19;6355968;27;20043;-78
2023/01/30 03:50:02;;;;;;;1.90;1.58;;;;;;;-0.23;100.00;100239.94;6359139;27;20048;-72
2023/01/30 03:53:03;;;;;;;7.38;4.10;;;;;;;-0.31;100.00;100244.31;6347990;28;20047;-72
2023/01/30 03:56:04;;;;;;;4.00;2.28;;;;;;;-0.50;100.00;100232.59;6326613;28;20088;-78
2023/01/30 03:59:05;;;;;;;10.65;3.22;;;;;;;-0.40;100.00;100223.91;6348184;28;20050;-78
2023/01/30 04:02:07;;;;;;;5.70;2.30;;;;;;;-0.38;97.30;100224.72;6317953;28;20044;-72
2023/01/30 04:05:08;;;;;;;3.25;2.22;;;;;;;-0.35;97.06;100222.16;6304904;28;20075;-78
2023/01/30 04:08:09;;;;;;;5.75;3.25;;;;;;;-0.37;95.37;100218.75;6304660;28;20040;-78
2023/01/30 04:11:10;;;;;;;4.60;2.88;;;;;;;-0.36;96.02;100222.16;6304482;28;20079;-72
2023/01/30 04:14:11;;;;;;;3.72;2.05;;;;;;;-0.40;95.70;100216.22;6346344;28;20402;-72
2023/01/30 04:17:14;;;;;;;2.42;1.85;;;;;;;-0.31;95.50;100221.25;6306265;28;20051;-78
2023/01/30 04:20:15;;;;;;;14.63;5.93;;;;;;;-0.41;94.59;100212.81;6322408;28;20557;-72
2023/01/30 04:23:16;;;;;;;4.57;3.47;;;;;;;-0.67;94.37;100202.88;6304111;28;20090;-72
2023/01/30 04:26:17;;;;;;;7.40;3.17;;;;;;;-0.64;94.18;100194.31;6322397;28;20118;-72
2023/01/30 04:29:17;;;;;;;5.40;2.53;;;;;;;-0.90;94.70;100192.94;6329484;28;20122;-73
2023/01/30 04:32:18;;;;;;;4.97;2.35;;;;;;;-0.88;93.87;100186.06;6347259;28;20051;-78
2023/01/30 04:35:19;;;;;;;3.97;2.38;;;;;;;-0.81;95.32;100181.72;6347238;28;20051;-78
2023/01/30 04:38:20;;;;;;;1.98;1.52;;;;;;;-0.88;96.32;100186.06;6347406;28;20050;-72
2023/01/30 04:41:23;;;;;;;2.35;1.48;;;;;;;-0.84;97.27;100186.88;6335968;28;20039;-73
2023/01/30 04:44:24;;;;;;;3.15;2.40;;;;;;;-0.83;97.02;100183.44;6303844;28;20443;-73
2023/01/30 04:47:25;;;;;;;7.38;2.40;;;;;;;-0.76;97.68;100182.53;6344544;28;20054;-78
2023/01/30 04:50:25;;;;;;;4.47;2.60;;;;;;;-0.69;98.14;100184.13;6329318;28;20495;-78
2023/01/30 04:53:26;;;;;;;4.65;2.97;;;;;;;-0.92;98.81;100188.69;6328872;28;20055;-73
2023/01/30 04:56:29;;;;;;;2.42;2.22;;;;;;;-1.03;99.52;100189.66;6328884;28;20072;-73
2023/01/30 04:59:30;;;;;;;3.58;2.50;;;;;;;-0.97;99.22;100190.44;6315118;28;20038;-72
2023/01/30 05:02:34;;;;;;;6.53;2.55;;;;;;;-0.99;99.79;100187.91;6329136;28;20434;-72
2023/01/30 05:05:34;;;;;;;4.28;2.53;;;;;;;-1.02;98.37;100188.78;6340140;28;20039;-73
2023/01/30 05:08:35;;;;;;;4.38;2.42;;;;;;;-1.11;99.54;100177.78;6307104;28;20036;-72
2023/01/30 05:11:36;;;;;;;1.75;1.58;;;;;;;-1.06;98.89;100173.47;6322803;28;20127;-72
2023/01/30 05:14:40;;;;;;;2.45;2.20;;;;;;;-1.32;98.77;100194.22;6320633;28;20561;-72
2023/01/30 05:17:40;;;;;;;1.98;1.23;;;;;;;-1.33;97.83;100192.56;6320658;28;20047;-78
2023/01/30 05:20:43;;;;;;;4.68;2.53;;;;;;;-1.31;96.34;100184.00;6325482;28;20048;-78
2023/01/30 05:23:45;;;;;;;1.88;1.65;;;;;;;-1.34;94.51;100196.84;6327768;28;20039;-78
2023/01/30 05:26:45;;;;;;;2.88;1.80;;;;;;;-1.35;94.17;100201.97;6324780;28;20483;-78
2023/01/30 05:29:46;;;;;;;4.38;3.08;;;;;;;-1.44;93.73;100202.91;6302795;28;20094;-72
2023/01/30 05:32:47;;;;;;;3.90;2.92;;;;;;;-1.50;94.49;100208.09;6320556;28;20480;-78
2023/01/30 05:35:49;;;;;;;6.72;4.13;;;;;;;-1.31;94.56;100217.28;6320584;28;20093;-72
2023/01/30 05:38:50;;;;;;;6.50;2.40;;;;;;;-1.29;94.98;100207.88;6323426;28;20047;-73
2023/01/30 05:41:50;;;;;;;5.82;3.13;;;;;;;-1.29;94.86;100202.75;6345545;28;20406;-78
2023/01/30 05:44:51;;;;;;;4.65;2.25;;;;;;;-1.31;96.55;100196.78;6345713;28;20035;-78
2023/01/30 05:47:52;;;;;;;2.80;2.25;;;;;;;-1.36;95.04;100198.56;6327882;28;20039;-77
2023/01/30 05:50:55;;;;;;;2.97;2.15;;;;;;;-1.33;92.95;100197.69;6327614;28;20043;-78
2023/01/30 05:53:56;;;;;;;2.15;1.95;;;;;;;-1.50;92.12;100183.34;6306258;28;20044;-77
2023/01/30 05:56:59;;;;;;;7.72;3.42;;;;;;;-1.53;92.24;100185.06;6306840;28;20040;-78
2023/01/30 06:00:00;;;;;;;4.40;2.90;;;;;;;-1.56;90.38;100180.81;6324602;28;20399;-72
2023/01/30 06:03:01;;;;;;;8.63;3.15;;;;;;;-1.42;91.37;100167.91;6324607;28;20044;-78
2023/01/30 06:06:03;;;;;;;5.80;3.83;;;;;;;-1.54;91.93;100171.44;6306605;28;20434;-78
2023/01/30 06:09:04;;;;;;;3.33;2.58;;;;;;;-1.44;91.93;100178.16;6306435;28;20098;-78
2023/01/30 06:12:06;;;;;;;4.70;3.25;;;;;;;-1.51;91.45;100184.19;6306784;28;20048;-77
2023/01/30 06:15:08;;;;;;;4.32;2.15;;;;;;;-1.61;91.61;100180.00;6306852;28;20032;-77
2023/01/30 06:18:08;;;;;;;9.80;2.30;;;;;;;-1.55;91.13;100168.88;6306539;28;20503;-77
2023/01/30 06:21:11;;;;;;;2.03;1.85;;;;;;;-1.45;91.41;100176.44;6306532;28;20044;-77
2023/01/30 06:24:15;;;;;;;1.45;1.35;;;;;;;-1.57;91.93;100171.44;6324563;28;20044;-78
2023/01/30 06:27:15;;;;;;;3.45;2.83;;;;;;;-1.54;91.18;100162.91;6324293;28;20036;-77
2023/01/30 06:30:19;;;;;;;3.05;2.28;;;;;;;-1.69;91.88;100169.88;6324271;28;20044;-78
2023/01/30 06:33:22;;;;;;;4.30;2.45;;;;;;;-1.60;92.90;100168.94;6315455;28;20066;-78
2023/01/30 06:36:23;;;;;;;1.98;1.30;;;;;;;-1.78;91.91;100171.66;6281340;28;20182;-78
2023/01/30 06:39:24;;;;;;;2.58;1.80;;;;;;;-1.78;92.19;100171.66;6280812;28;20484;-72
2023/01/30 06:42:27;;;;;;;4.90;2.95;;;;;;;-1.84;91.75;100167.44;6298364;28;20033;-72
2023/01/30 06:45:29;;;;;;;4.60;1.58;;;;;;;-1.80;91.19;100179.31;6298396;28;20052;-72
2023/01/30 06:48:29;;;;;;;2.55;2.30;;;;;;;-1.78;90.04;100174.22;6280369;28;20033;-71
2023/01/30 06:51:31;;;;;;;4.22;3.13;;;;;;;-1.78;88.43;100171.66;6302718;28;20491;-72
2023/01/30 06:54:34;;;;;;;9.60;3.47;;;;;;;-1.70;89.56;100169.88;6305343;28;20048;-71
2023/01/30 06:57:35;;;;;;;3.90;2.17;;;;;;;-1.50;90.07;100157.75;6305103;28;20043;-71
2023/01/30 07:00:38;;;;;;;5.57;2.45;;;;;;;-1.47;89.03;100155.13;6323321;28;20040;-78
2023/01/30 07:03:39;;;;;;;3.67;2.63;;;;;;;-1.40;89.67;100157.63;6322802;28;20090;-72
2023/01/30 07:06:40;;;;;;;2.25;1.52;;;;;;;-1.53;93.16;100159.47;6323077;28;20044;-72
2023/01/30 07:09:40;;;;;;;2.92;2.17;;;;;;;-1.49;95.01;100166.25;6305117;28;20105;-78
2023/01/30 07:12:43;;;;;;;1.95;1.85;;;;;;;-1.56;95.10;100157.78;6305252;28;20040;-78
2023/01/30 07:15:45;;;;;;;4.38;2.90;;;;;;;-1.54;94.44;100165.47;6322774;28;20113;-71
2023/01/30 07:18:46;;;;;;;6.40;2.42;;;;;;;-1.77;95.83;100163.97;6304580;28;20552;-71
2023/01/30 07:21:47;;;;;;;2.72;2.00;;;;;;;-1.68;92.42;100153.63;6304935;28;20044;-78
2023/01/30 07:24:53;;;;;;;1.88;1.65;;;;;;;-1.74;91.75;100157.97;6322790;28;20040;-72
2023/01/30 07:28:03;;;;;;;4.13;2.53;;;;;;;-1.94;91.40;100158.13;6304902;28;20138;-78
2023/01/30 07:31:04;;;;;;;2.53;2.33;;;;;;;-1.89;91.57;100147.00;6304574;28;20086;-72
2023/01/30 07:34:05;;;;;;;1.90;1.75;;;;;;;-1.67;91.03;100146.81;6304327;28;20166;-72
2023/01/30 07:37:06;;;;;;;1.33;1.20;;;;;;;-1.72;91.62;100140.91;6304707;28;20503;-78
2023/01/30 07:40:11;;;;;;;5.70;2.60;;;;;;;-1.82;91.90;100132.44;6304388;28;20042;-78
2023/01/30 07:43:13;;;;;;;3.75;2.67;;;;;;;-1.71;91.36;100140.00;6322171;28;20480;-78
2023/01/30 07:46:13;;;;;;;2.53;2.30;;;;;;;-1.74;93.51;100133.22;6304629;28;20060;-77
2023/01/30 07:49:14;;;;;;;2.92;2.20;;;;;;;-1.83;93.12;100129.06;6322371;28;20287;-78
2023/01/30 07:52:18;;;;;;;1.75;1.65;;;;;;;-2.00;94.25;100130.06;6304684;28;20055;-77
2023/01/30 07:55:19;;;;;;;2.58;1.48;;;;;;;-1.85;94.91;100115.44;6304313;28;20040;-77
2023/01/30 07:58:20;;;;;;;1.52;1.20;;;;;;;-1.67;95.80;100118.66;6304066;28;20128;-78
2023/01/30 08:01:21;;;;;;;2.40;1.65;;;;;;;-1.42;94.93;100114.16;6304103;28;20044;-78
2023/01/30 08:04:24;;;;;;;3.70;1.95;;;;;;;-1.20;90.60;100103.66;6321771;28;20504;-72
2023/01/30 08:07:25;;;;;;;2.80;2.20;;;;;;;-1.32;89.18;100102.94;6321496;28;20071;-71
2023/01/30 08:10:26;;;;;;;5.93;2.50;;;;;;;-1.40;88.49;100103.88;6303537;28;20407;-71
2023/01/30 08:13:26;;;;;;;3.03;2.70;;;;;;;-1.25;86.85;100096.03;6303748;28;20399;-78
2023/01/30 08:16:27;;;;;;;10.15;5.88;;;;;;;-1.36;87.30;100098.72;6321394;28;20115;-78
2023/01/30 08:19:28;;;;;;;2.15;1.95;;;;;;;-1.26;85.47;100105.41;6303523;28;20040;-78
2023/01/30 08:22:31;;;;;;;2.33;1.95;;;;;;;-1.48;87.63;100088.63;6303714;28;20377;-78
2023/01/30 08:25:31;;;;;;;2.80;1.88;;;;;;;-1.66;88.91;100097.34;6321519;28;20036;-72
2023/01/30 08:28:32;;;;;;;3.17;1.67;;;;;;;-1.56;88.09;100103.22;6320953;28;20051;-72
2023/01/30 08:31:33;;;;;;;2.97;2.70;;;;;;;-1.45;87.15;100104.78;6303885;28;20117;-78
2023/01/30 08:34:34;;;;;;;1.75;1.38;;;;;;;-1.26;85.57;100104.56;6320994;28;20051;-71
2023/01/30 08:37:37;;;;;;;9.43;2.53;;;;;;;-1.07;85.60;100107.75;6321124;28;20071;-71
2023/01/30 08:40:38;;;;;;;;;;;;;;;-1.10;84.12;100110.34;6303496;28;20047;-72
2023/01/30 08:43:39;;;;;;;3.13;2.20;;;;;;;-0.99;83.21;100108.50;6303001;28;19955;-71
2023/01/30 08:46:40;;;;;;;3.53;2.38;;;;;;;-1.10;83.11;100093.28;6319799;28;20043;-71
2023/01/30 08:49:41;;;;;;;4.07;1.42;;;;;;;-0.89;83.23;100081.06;6302946;28;20105;-78
2023/01/30 08:52:42;;;;;;;2.88;2.55;;;;;;;-0.96;83.90;100071.78;6320710;28;20554;-71
2023/01/30 08:55:43;;;;;;;7.28;2.17;;;;;;;-0.95;83.22;100069.16;6302973;28;20081;-71
2023/01/30 08:58:45;;;;;;;1.45;1.35;;;;;;;-0.97;84.27;100068.34;6302749;28;20063;-71
2023/01/30 09:01:46;;;;;;;1.67;1.58;;;;;;;-1.24;84.73;100067.84;6321058;28;20123;-78
2023/01/30 09:04:49;;;;;;;2.80;2.53;;;;;;;-1.04;84.77;100075.25;6321039;28;20737;-78
2023/01/30 09:07:53;;;;;;;1.65;1.55;;;;;;;-0.96;85.80;100067.50;6302761;28;20044;-71
2023/01/30 09:10:58;;;;;;;2.85;2.33;;;;;;;-0.76;84.27;100056.09;6302610;28;20036;-72
2023/01/30 09:14:01;;;;;;;5.35;3.53;;;;;;;-0.59;82.67;100041.34;6320759;28;20036;-78
2023/01/30 09:17:04;;;;;;;2.50;1.25;;;;;;;-0.63;83.92;100040.53;6320600;28;20060;-71
2023/01/30 09:20:09;;;;;;;1.65;1.55;;;;;;;-0.58;82.71;100034.47;6320477;28;20476;-73
2023/01/30 09:23:10;;;;;;;18.90;2.20;;;;;;;-0.59;84.30;100025.94;6320516;28;20048;-72
2023/01/30 09:26:11;;;;;;;1.48;1.38;;;;;;;-0.50;83.55;100018.09;6302634;28;20040;-72
2023/01/30 09:29:13;;;;;;;3.25;1.92;;;;;;;-0.65;84.26;100014.06;6307262;28;20047;-71
2023/01/30 09:32:14;;;;;;;5.20;2.47;;;;;;;-0.37;82.71;100013.63;6307554;28;20044;-77
2023/01/30 09:35:15;;;;;;;3.15;2.85;;;;;;;-0.55;84.58;100007.09;6325490;28;20044;-77
2023/01/30 09:38:16;;;;;;;4.45;2.85;;;;;;;-0.49;84.32;99994.19;6325493;28;20036;-77
2023/01/30 09:41:42;;;;;;;2.90;2.63;;;;;;;-0.27;82.74;99984.41;6324994;28;20123;-71
2023/01/30 09:44:46;;;;;;;2.65;2.00;;;;;;;-0.28;81.65;99982.69;6306875;28;20043;-72
2023/01/30 09:48:04;;;;;;;3.08;2.38;;;;;;;0.12;80.39;99963.16;6325309;28;20040;-77
2023/01/30 09:51:44;;;;;;;8.38;3.55;;;;;;;0.22;80.52;99956.13;6324942;28;20036;-77
2023/01/30 09:54:46;;;;;;;2.60;2.10;;;;;;;0.09;79.45;99950.41;6307243;28;20051;-77
2023/01/30 09:57:49;;;;;;;3.47;2.38;;;;;;;-0.30;81.47;99948.53;6325211;28;20040;-77
2023/01/30 10:01:02;;;;;;;1.88;1.63;;;;;;;-0.34;83.17;99954.59;6324679;28;20553;-72
2023/01/30 10:04:17;;;;;;;;;;;;;;;-0.18;81.62;99954.34;6324850;28;20040;-72
2023/01/30 10:07:30;;;;;;;2.13;1.90;;;;;;;-0.01;81.91;99949.72;6323396;28;20284;-72
2023/01/30 10:10:47;;;;;;;17.17;2.15;;;;;;;-0.05;80.38;99941.22;6324441;28;20056;-72
2023/01/30 10:13:56;;;;;;;3.30;2.67;;;;;;;0.17;81.73;99948.53;6324406;28;20043;-72
2023/01/30 10:17:11;;;;;;;3.70;2.97;;;;;;;0.15;80.76;99945.97;6324271;28;20036;-72
2023/01/30 10:20:30;;;;;;;2.30;1.98;;;;;;;0.56;80.48;99928.03;6306141;28;20545;-77
2023/01/30 10:23:40;;;;;;;5.38;2.20;;;;;;;0.56;79.44;99926.31;6306189;28;20127;-77
2023/01/30 10:26:44;;;;;;;4.68;2.75;;;;;;;0.27;81.18;99920.94;6323890;28;20039;-72
2023/01/30 10:29:55;;;;;;;4.90;2.60;;;;;;;0.16;82.70;99922.00;6305848;28;20040;-73
2023/01/30 10:33:01;;;;;;;2.33;1.98;;;;;;;0.08;80.78;99923.03;6323929;28;20040;-72
2023/01/30 10:36:15;;;;;;;3.25;2.45;;;;;;;-0.21;82.79;99916.75;6305806;28;20066;-72
2023/01/30 10:39:48;;;;;;;1.23;1.15;;;;;;;-0.26;84.41;99921.13;6305185;28;20519;-77
2023/01/30 10:43:10;;;;;;;5.93;2.67;;;;;;;-0.12;85.97;99916.59;6281638;28;20076;-72
2023/01/30 10:46:40;;;;;;;5.77;3.40;;;;;;;-0.06;86.09;99902.81;6305471;28;20442;-72
2023/01/30 10:50:01;;;;;;;4.45;2.50;;;;;;;0.01;85.86;99890.69;6314066;28;20064;-72
2023/01/30 10:53:13;;;;;;;2.75;1.35;;;;;;;-0.07;85.76;99883.16;6305459;28;20047;-78
2023/01/30 10:56:21;;;;;;;3.20;1.50;;;;;;;-0.10;85.40;99873.81;6323777;28;20040;-78
2023/01/30 10:59:25;;;;;;;3.15;2.10;;;;;;;-0.03;85.62;99864.25;6305571;28;20039;-72
2023/01/30 11:02:37;;;;;;;3.38;2.13;;;;;;;0.13;85.31;99852.81;6323348;28;20043;-78
2023/01/30 11:05:55;;;;;;;3.22;2.22;;;;;;;0.45;85.01;99851.22;6305462;28;20476;-78
2023/01/30 11:08:56;;;;;;;1.45;1.35;;;;;;;0.43;84.71;99832.44;6323138;28;20043;-71
2023/01/30 11:11:59;;;;;;;1.63;1.30;;;;;;;0.54;84.75;99821.94;6322871;28;20492;-72
2023/01/30 11:15:02;;;;;;;5.50;2.67;;;;;;;0.47;84.57;99807.56;6304871;28;20048;-72
2023/01/30 11:18:06;;;;;;;2.08;0.88;;;;;;;0.67;85.77;99801.97;6323245;28;20064;-72
2023/01/30 11:21:13;;;;;;;2.40;1.33;;;;;;;0.75;84.20;99802.59;6304659;28;20035;-78
2023/01/30 11:24:17;;;;;;;3.50;2.13;;;;;;;0.61;83.57;99805.50;6305062;28;20123;-78
2023/01/30 11:27:26;;;;;;;4.13;2.65;;;;;;;0.43;85.54;99790.53;6305140;28;20067;-78
2023/01/30 11:30:32;;;;;;;5.88;2.47;;;;;;;0.42;85.98;99773.47;6322582;28;20048;-72
2023/01/30 11:33:39;;;;;;;4.10;2.65;;;;;;;0.26;85.77;99776.38;6304484;28;20063;-72
2023/01/30 11:36:40;;;;;;;4.32;2.45;;;;;;;0.42;87.70;99776.03;6322719;28;20468;-72
2023/01/30 11:39:51;;;;;;;4.30;2.42;;;;;;;0.57;87.40;99767.94;6322313;28;20114;-77
2023/01/30 11:43:01;;;;;;;6.57;2.63;;;;;;;0.60;85.91;99767.88;6304263;28;20032;-78
2023/01/30 11:46:04;;;;;;;6.50;3.55;;;;;;;0.75;85.59;99764.91;6304236;28;20551;-72
2023/01/30 11:49:14;;;;;;;2.67;2.42;;;;;;;0.95;84.67;99764.41;6321483;28;20123;-72
2023/01/30 11:52:18;;;;;;;2.25;2.05;;;;;;;0.94;84.87;99744.72;6303687;28;20067;-72
2023/01/30 11:55:20;;;;;;;2.42;1.88;;;;;;;0.92;84.84;99743.94;6321992;28;20043;-78
2023/01/30 11:58:28;;;;;;;5.18;3.30;;;;;;;0.86;85.58;99740.69;6320878;28;20054;-72
2023/01/30 12:01:33;;;;;;;6.28;3.17;;;;;;;1.08;85.95;99741.81;6303619;28;20039;-72
2023/01/30 12:04:34;;;;;;;6.28;2.47;;;;;;;0.80;86.41;99732.28;6304194;28;20032;-78
2023/01/30 12:07:36;;;;;;;3.00;2.08;;;;;;;0.77;86.56;99729.78;6321973;28;20406;-72
2023/01/30 12:10:41;;;;;;;3.95;3.08;;;;;;;0.67;86.73;99720.63;6303507;28;20040;-72
2023/01/30 12:13:45;;;;;;;6.88;2.65;;;;;;;0.58;87.87;99714.00;6303544;28;20047;-72
2023/01/30 12:17:20;;;;;;;5.68;3.53;;;;;;;0.67;89.17;99700.06;6303544;28;20055;-72
2023/01/30 12:20:49;;;;;;;3.75;2.08;;;;;;;0.76;88.87;99696.41;6303812;28;20043;-77
2023/01/30 12:24:11;;;;;;;4.00;3.08;;;;;;;0.84;89.04;99678.25;6303258;28;20491;-77
2023/01/30 12:27:23;;;;;;;4.55;2.85;;;;;;;0.72;89.26;99675.13;6321533;28;20036;-72
2023/01/30 12:30:36;;;;;;;8.63;3.15;;;;;;;0.80;89.35;99664.63;6321234;28;20039;-73
2023/01/30 12:33:37;;;;;;;5.45;3.08;;;;;;;0.85;89.09;99657.66;6321406;28;20048;-71
2023/01/30 12:36:58;;;;;;;2.28;1.52;;;;;;;0.97;89.36;99649.59;6303064;28;20125;-72
2023/01/30 12:40:23;;;;;;;5.05;2.70;;;;;;;1.19;89.18;99644.72;6320138;28;20048;-77
2023/01/30 12:43:47;;;;;;;3.35;2.53;;;;;;;1.16;87.82;99651.66;6321650;28;20421;-77
2023/01/30 12:47:00;;;;;;;2.30;1.73;;;;;;;1.09;88.02;99656.13;6303008;28;20036;-72
2023/01/30 12:50:20;;;;;;;;;;;;;;;1.12;88.60;99648.31;6303568;28;20048;-77
2023/01/30 12:53:58;;;;;;;4.97;2.33;;;;;;;1.15;88.00;99642.25;6301257;28;19924;-78
2023/01/30 12:56:59;;;;;;;11.68;4.43;;;;;;;1.17;88.11;99636.19;6296293;28;20074;-78
2023/01/30 13:00:24;;;;;;;4.72;2.83;;;;;;;1.20;88.21;99618.09;6296464;28;20040;-78
2023/01/30 13:03:52;;;;;;;4.10;3.15;;;;;;;1.24;88.27;99615.47;6301276;28;20047;-78
2023/01/30 13:07:11;;;;;;;6.20;3.30;;;;;;;1.20;88.42;99609.56;6301189;28;20455;-72
2023/01/30 13:10:23;;;;;;;4.50;2.90;;;;;;;1.24;88.25;99602.59;6300633;28;20154;-72
2023/01/30 13:13:48;;;;;;;4.55;3.00;;;;;;;1.25;88.78;99614.56;6300937;28;20068;-72
2023/01/30 13:16:59;;;;;;;16.25;2.05;;;;;;;1.28;87.69;99604.19;6300499;28;20044;-72
2023/01/30 13:20:12;;;;;;;3.40;1.60;;;;;;;1.28;88.17;99604.19;6300482;28;20040;-72
2023/01/30 13:23:23;;;;;;;2.72;2.40;;;;;;;1.31;88.97;99598.94;6282419;28;20041;-73
2023/01/30 13:26:33;;;;;;;4.07;2.30;;;;;;;1.33;89.34;99581.75;6282647;28;20114;-72
2023/01/30 13:29:40;;;;;;;6.78;3.00;;;;;;;1.45;89.51;99590.81;6300284;28;20041;-72
2023/01/30 13:32:47;;;;;;;4.68;3.20;;;;;;;1.48;89.81;99588.16;6282571;28;20064;-78
2023/01/30 13:35:53;;;;;;;4.35;3.00;;;;;;;1.51;89.95;99593.22;6300422;28;20503;-72
2023/01/30 13:39:11;;;;;;;9.98;4.15;;;;;;;1.48;88.74;99585.56;6282671;28;20381;-78
2023/01/30 13:42:28;;;;;;;3.90;2.75;;;;;;;1.33;89.58;99584.31;6300280;28;20036;-78
2023/01/30 13:45:32;;;;;;;1.58;1.48;;;;;;;1.22;90.33;99587.22;6282507;28;20040;-77
2023/01/30 13:48:52;;;;;;;5.78;3.92;;;;;;;1.33;90.45;99587.72;6300302;28;20040;-78
2023/01/30 13:52:07;;;;;;;6.85;2.38;;;;;;;1.27;90.29;99589.66;6290047;28;20052;-78
2023/01/30 13:55:30;;;;;;;4.70;2.85;;;;;;;1.37;90.29;99579.03;6307383;28;20040;-78
2023/01/30 13:58:43;;;;;;;5.40;3.05;;;;;;;1.26;90.94;99577.69;6307093;28;20492;-72
2023/01/30 14:02:00;;;;;;;5.65;2.85;;;;;;;1.29;91.78;99580.16;6324545;28;20119;-72
2023/01/30 14:05:04;;;;;;;7.03;3.28;;;;;;;1.20;91.88;99569.28;6324935;28;20036;-78
2023/01/30 14:08:11;;;;;;;2.90;2.08;;;;;;;1.12;92.36;99570.41;6307065;28;20505;-78
2023/01/30 14:11:58;;;;;;;4.55;2.92;;;;;;;1.20;92.14;99561.56;6325041;28;20039;-78
2023/01/30 14:15:18;;;;;;;6.95;2.80;;;;;;;1.20;90.99;99566.69;6215314;28;20050;-78
2023/01/30 14:18:25;;;;;;;1.95;0.98;;;;;;;1.31;91.50;99560.41;6306958;28;20542;-78
2023/01/30 14:21:28;;;;;;;2.47;2.22;;;;;;;1.25;91.93;99574.25;6307122;28;20032;-72
2023/01/30 14:24:30;;;;;;;6.10;4.03;;;;;;;1.24;90.98;99569.19;6305919;28;20044;-73
2023/01/30 14:27:31;;;;;;;5.63;3.60;;;;;;;1.25;90.52;99574.25;6306118;28;20044;-72
2023/01/30 14:30:51;;;;;;;4.97;2.17;;;;;;;1.25;90.81;99576.00;6324245;28;20043;-78
2023/01/30 14:33:52;;;;;;;5.95;3.60;;;;;;;1.36;90.17;99567.09;6306019;28;20492;-72
2023/01/30 14:36:53;;;;;;;5.70;2.80;;;;;;;1.27;90.82;99572.50;6324370;28;20045;-77
2023/01/30 14:39:56;;;;;;;7.22;3.10;;;;;;;1.13;92.23;99566.94;6306267;28;20169;-72